createdAt,value
2023-03-16T00:00:41.400Z,0.0000
2023-03-16T00:01:43.139Z,0.0000
2023-03-16T00:02:45.046Z,0.0000
2023-03-16T00:03:46.759Z,0.0000
2023-03-16T00:04:48.412Z,0.0000
2023-03-16T00:05:50.552Z,0.0000
2023-03-16T00:06:52.096Z,0.0000
2023-03-16T00:07:54.558Z,0.0000
2023-03-16T00:08:55.778Z,0.0000
2023-03-16T00:09:57.358Z,0.0000
2023-03-16T00:10:59.345Z,0.0000
2023-03-16T00:12:00.893Z,0.0000
2023-03-16T00:13:02.676Z,0.0000
2023-03-16T00:14:04.481Z,0.0000
2023-03-16T00:15:06.282Z,0.0000
2023-03-16T00:16:08.151Z,0.0000
2023-03-16T00:17:09.751Z,0.0000
2023-03-16T00:18:11.614Z,0.0000
2023-03-16T00:19:13.488Z,0.0000
2023-03-16T00:20:15.431Z,0.0000
2023-03-16T00:21:17.116Z,0.0000
2023-03-16T00:22:19.002Z,0.0000
2023-03-16T00:23:20.813Z,0.0000
2023-03-16T00:24:22.804Z,0.0000
2023-03-16T00:25:24.531Z,0.0000
2023-03-16T00:26:26.346Z,0.0000
2023-03-16T00:27:28.164Z,0.0000
2023-03-16T00:28:30.062Z,0.0000
2023-03-16T00:29:32.162Z,0.0000
2023-03-16T00:30:33.510Z,0.0000
2023-03-16T00:31:35.378Z,0.0000
2023-03-16T00:32:37.265Z,0.0000
2023-03-16T00:33:39.041Z,0.0000
2023-03-16T00:34:40.848Z,0.0000
2023-03-16T00:35:42.551Z,0.0000
2023-03-16T00:36:44.280Z,0.0000
2023-03-16T00:37:46.335Z,0.0000
2023-03-16T00:38:47.884Z,0.0000
2023-03-16T00:39:49.720Z,0.0000
2023-03-16T00:40:51.424Z,0.0000
2023-03-16T00:41:53.256Z,0.0000
2023-03-16T00:42:55.159Z,0.0000
2023-03-16T00:43:56.822Z,0.0000
2023-03-16T00:44:58.652Z,0.0000
2023-03-16T00:46:00.521Z,0.0000
2023-03-16T00:47:02.416Z,0.0000
2023-03-16T00:48:04.202Z,0.0000
2023-03-16T00:49:05.940Z,0.0000
2023-03-16T00:50:08.281Z,0.0000
2023-03-16T00:51:09.518Z,0.0000
2023-03-16T00:52:11.323Z,0.0000
2023-03-16T00:53:13.128Z,0.0000
2023-03-16T00:54:14.920Z,0.0000
2023-03-16T00:55:16.869Z,0.0000
2023-03-16T00:56:18.541Z,0.0000
2023-03-16T00:57:20.483Z,0.0000
2023-03-16T00:58:22.281Z,0.0000
2023-03-16T00:59:24.041Z,0.0000
2023-03-16T01:00:26.128Z,0.0000
2023-03-16T01:01:27.787Z,0.0000
2023-03-16T01:02:29.295Z,0.0000
2023-03-16T01:03:31.148Z,0.0000
2023-03-16T01:04:32.884Z,0.0000
2023-03-16T01:05:34.843Z,0.0000
2023-03-16T01:06:39.437Z,0.0000
2023-03-16T01:07:38.262Z,0.0000
2023-03-16T01:08:40.108Z,0.0000
2023-03-16T01:09:41.909Z,0.0000
2023-03-16T01:10:43.835Z,0.0000
2023-03-16T01:11:45.492Z,0.0000
2023-03-16T01:12:47.328Z,0.0000
2023-03-16T01:13:49.193Z,0.0000
2023-03-16T01:14:50.938Z,0.0000
2023-03-16T01:15:52.711Z,0.0000
2023-03-16T01:16:54.546Z,0.0000
2023-03-16T01:17:56.402Z,0.0000
2023-03-16T01:18:58.088Z,0.0000
2023-03-16T01:19:59.927Z,0.0000
2023-03-16T01:21:01.834Z,0.0000
2023-03-16T01:22:03.455Z,0.0000
2023-03-16T01:23:05.329Z,0.0000
2023-03-16T01:24:07.060Z,0.0000
2023-03-16T01:25:08.862Z,0.0000
2023-03-16T01:26:10.716Z,0.0000
2023-03-16T01:27:12.507Z,0.0000
2023-03-16T01:28:14.333Z,0.0000
2023-03-16T01:29:16.492Z,0.0000
2023-03-16T01:30:17.895Z,0.0000
2023-03-16T01:31:19.817Z,0.0000
2023-03-16T01:32:21.361Z,0.0000
2023-03-16T01:33:23.218Z,0.0000
2023-03-16T01:34:25.009Z,0.0000
2023-03-16T01:35:26.797Z,0.0000
2023-03-16T01:36:28.585Z,0.0000
2023-03-16T01:37:30.386Z,0.0000
2023-03-16T01:38:32.112Z,0.0000
2023-03-16T01:39:33.881Z,0.0000
2023-03-16T01:40:35.668Z,0.0000
2023-03-16T01:41:37.459Z,0.0000
2023-03-16T01:42:39.148Z,0.0000
2023-03-16T01:43:40.942Z,0.0000
2023-03-16T01:44:42.666Z,0.0000
2023-03-16T01:45:44.461Z,0.0000
2023-03-16T01:46:46.308Z,0.0000
2023-03-16T01:47:48.033Z,0.0000
2023-03-16T01:48:49.726Z,0.0000
2023-03-16T01:49:51.459Z,0.0000
2023-03-16T01:50:53.206Z,0.0000
2023-03-16T01:51:55.001Z,0.0000
2023-03-16T01:52:56.757Z,0.0000
2023-03-16T01:53:58.491Z,0.0000
2023-03-16T01:55:00.247Z,0.0000
2023-03-16T01:56:01.915Z,0.0000
2023-03-16T01:57:03.653Z,0.0000
2023-03-16T01:58:05.373Z,0.0000
2023-03-16T01:59:07.152Z,0.0000
2023-03-16T02:00:08.816Z,0.0000
2023-03-16T02:01:10.657Z,0.0000
2023-03-16T02:02:12.368Z,0.0000
2023-03-16T02:03:14.087Z,0.0000
2023-03-16T02:04:15.734Z,0.0000
2023-03-16T02:05:17.425Z,0.0000
2023-03-16T02:06:19.111Z,0.0000
2023-03-16T02:07:20.910Z,0.0000
2023-03-16T02:08:22.558Z,0.0000
2023-03-16T02:09:24.231Z,0.0000
2023-03-16T02:10:26.488Z,0.0000
2023-03-16T02:11:27.690Z,0.0000
2023-03-16T02:12:29.389Z,0.0000
2023-03-16T02:13:31.210Z,0.0000
2023-03-16T02:14:32.927Z,0.0000
2023-03-16T02:15:34.843Z,0.0000
2023-03-16T02:16:36.454Z,0.0000
2023-03-16T02:17:38.335Z,0.0000
2023-03-16T02:18:40.099Z,0.0000
2023-03-16T02:19:41.798Z,0.0000
2023-03-16T02:20:43.563Z,0.0000
2023-03-16T02:21:45.321Z,0.0000
2023-03-16T02:22:47.332Z,0.0000
2023-03-16T02:23:48.958Z,0.0000
2023-03-16T02:24:50.747Z,0.0000
2023-03-16T02:25:52.522Z,0.0000
2023-03-16T02:26:54.334Z,0.0000
2023-03-16T02:27:56.128Z,0.0000
2023-03-16T02:28:57.780Z,0.0000
2023-03-16T02:29:59.500Z,0.0000
2023-03-16T02:31:01.272Z,0.0000
2023-03-16T02:32:02.909Z,0.0000
2023-03-16T02:33:04.788Z,0.0000
2023-03-16T02:34:06.371Z,0.0000
2023-03-16T02:35:08.155Z,0.0000
2023-03-16T02:36:09.959Z,0.0000
2023-03-16T02:37:11.603Z,0.0000
2023-03-16T02:38:13.580Z,0.0000
2023-03-16T02:39:15.232Z,0.0000
2023-03-16T02:40:16.912Z,0.0000
2023-03-16T02:41:18.733Z,0.0000
2023-03-16T02:42:20.488Z,0.0000
2023-03-16T02:43:22.367Z,0.0000
2023-03-16T02:44:24.060Z,0.0000
2023-03-16T02:45:25.707Z,0.0000
2023-03-16T02:46:27.459Z,0.0000
2023-03-16T02:47:29.163Z,0.0000
2023-03-16T02:48:51.976Z,0.0000
2023-03-16T02:49:32.631Z,0.0000
2023-03-16T02:50:34.402Z,0.0000
2023-03-16T02:52:38.045Z,0.0000
2023-03-16T02:52:38.045Z,0.0000
2023-03-16T02:53:39.731Z,0.0000
2023-03-16T02:54:41.541Z,0.0000
2023-03-16T02:55:43.363Z,0.0000
2023-03-16T02:56:45.057Z,0.0000
2023-03-16T02:57:46.932Z,0.0000
2023-03-16T02:58:48.670Z,0.0000
2023-03-16T02:59:50.562Z,0.0000
2023-03-16T03:00:52.193Z,0.0000
2023-03-16T03:01:53.976Z,0.0000
2023-03-16T03:02:55.780Z,0.0000
2023-03-16T03:03:57.560Z,0.0000
2023-03-16T03:04:59.437Z,0.0000
2023-03-16T03:06:01.141Z,0.0000
2023-03-16T03:07:03.034Z,0.0000
2023-03-16T03:08:04.717Z,0.0000
2023-03-16T03:09:06.514Z,0.0000
2023-03-16T03:10:08.314Z,0.0000
2023-03-16T03:11:10.137Z,0.0000
2023-03-16T03:12:11.952Z,0.0000
2023-03-16T03:13:13.650Z,0.0000
2023-03-16T03:14:15.472Z,0.0000
2023-03-16T03:15:17.215Z,0.0000
2023-03-16T03:16:18.862Z,0.0000
2023-03-16T03:17:20.565Z,0.0000
2023-03-16T03:18:22.319Z,0.0000
2023-03-16T03:19:24.102Z,0.0000
2023-03-16T03:20:26.026Z,0.0000
2023-03-16T03:21:27.677Z,0.0000
2023-03-16T03:22:29.465Z,0.0000
2023-03-16T03:23:31.385Z,0.0000
2023-03-16T03:24:33.048Z,0.0000
2023-03-16T03:25:35.085Z,0.0000
2023-03-16T03:26:36.699Z,0.0000
2023-03-16T03:27:38.618Z,0.0000
2023-03-16T03:28:40.254Z,0.0000
2023-03-16T03:29:42.081Z,0.0000
2023-03-16T03:30:43.908Z,0.0000
2023-03-16T03:31:45.689Z,0.0000
2023-03-16T03:32:47.526Z,0.0000
2023-03-16T03:33:49.256Z,0.0000
2023-03-16T03:34:51.097Z,0.0000
2023-03-16T03:35:53.120Z,0.0000
2023-03-16T03:36:54.747Z,0.0000
2023-03-16T03:37:56.468Z,0.0000
2023-03-16T03:38:58.224Z,0.0000
2023-03-16T03:40:00.119Z,0.0000
2023-03-16T03:41:01.973Z,0.0000
2023-03-16T03:42:03.629Z,0.0000
2023-03-16T03:43:05.441Z,0.0000
2023-03-16T03:44:07.277Z,0.0000
2023-03-16T03:45:09.029Z,0.0000
2023-03-16T03:46:11.045Z,0.0000
2023-03-16T03:47:12.791Z,0.0000
2023-03-16T03:48:14.493Z,0.0000
2023-03-16T03:49:16.320Z,0.0000
2023-03-16T03:50:18.109Z,0.0000
2023-03-16T03:51:20.060Z,0.0000
2023-03-16T03:52:21.628Z,0.0000
2023-03-16T03:53:23.485Z,0.0000
2023-03-16T03:54:25.269Z,0.0000
2023-03-16T03:55:27.219Z,0.0000
2023-03-16T03:56:28.872Z,0.0000
2023-03-16T03:57:30.687Z,0.0000
2023-03-16T03:58:32.545Z,0.0000
2023-03-16T03:59:34.369Z,0.0000
2023-03-16T04:00:36.130Z,0.0000
2023-03-16T04:04:09.408Z,0.0000
2023-03-16T04:04:09.408Z,0.0000
2023-03-16T04:04:09.408Z,0.0000
2023-03-16T04:05:11.087Z,0.0000
2023-03-16T04:06:12.876Z,0.0000
2023-03-16T04:07:14.667Z,0.0000
2023-03-16T04:08:16.439Z,0.0000
2023-03-16T04:09:18.290Z,0.0000
2023-03-16T04:10:20.055Z,0.0000
2023-03-16T04:11:21.874Z,0.0000
2023-03-16T04:12:23.613Z,0.0000
2023-03-16T04:13:25.375Z,0.0000
2023-03-16T04:14:27.133Z,0.0000
2023-03-16T04:15:28.825Z,0.0000
2023-03-16T04:16:30.666Z,0.0000
2023-03-16T04:17:32.338Z,0.0000
2023-03-16T04:18:34.041Z,0.0000
2023-03-16T04:19:35.956Z,0.0000
2023-03-16T04:20:37.637Z,0.0000
2023-03-16T04:21:39.417Z,0.0000
2023-03-16T04:22:41.181Z,0.0000
2023-03-16T04:23:42.999Z,0.0000
2023-03-16T04:24:44.852Z,0.0000
2023-03-16T04:25:46.657Z,0.0000
2023-03-16T04:26:48.432Z,0.0000
2023-03-16T04:27:50.261Z,0.0000
2023-03-16T04:28:52.057Z,0.0000
2023-03-16T04:29:53.876Z,0.0000
2023-03-16T04:30:55.709Z,0.0000
2023-03-16T04:31:57.504Z,0.0000
2023-03-16T04:32:59.325Z,0.0000
2023-03-16T04:34:01.098Z,0.0000
2023-03-16T04:35:02.854Z,0.0000
2023-03-16T04:36:04.789Z,0.0000
2023-03-16T04:37:06.438Z,0.0000
2023-03-16T04:38:08.238Z,0.0000
2023-03-16T04:39:10.056Z,0.0000
2023-03-16T04:40:11.907Z,0.0000
2023-03-16T04:41:13.702Z,0.0000
2023-03-16T04:42:15.563Z,0.0000
2023-03-16T04:43:17.360Z,0.0000
2023-03-16T04:44:19.122Z,0.0000
2023-03-16T04:45:20.910Z,0.0000
2023-03-16T04:46:22.811Z,0.0000
2023-03-16T04:47:24.437Z,0.0000
2023-03-16T04:48:26.222Z,0.0000
2023-03-16T04:49:27.989Z,0.0000
2023-03-16T04:50:30.209Z,0.0000
2023-03-16T04:51:31.526Z,0.0000
2023-03-16T04:52:33.328Z,0.0000
2023-03-16T04:53:35.146Z,0.0000
2023-03-16T04:54:36.886Z,0.0000
2023-03-16T04:55:38.644Z,0.0000
2023-03-16T04:56:40.461Z,0.0000
2023-03-16T04:57:42.288Z,0.0000
2023-03-16T04:58:44.106Z,0.0000
2023-03-16T04:59:45.896Z,0.0000
2023-03-16T05:00:47.735Z,0.0000
2023-03-16T05:01:49.644Z,0.0000
2023-03-16T05:02:51.307Z,0.0000
2023-03-16T05:03:53.085Z,0.0000
2023-03-16T05:04:54.877Z,0.0000
2023-03-16T05:05:56.864Z,0.0000
2023-03-16T05:06:58.485Z,0.0000
2023-03-16T05:08:00.311Z,0.0000
2023-03-16T05:09:02.198Z,0.0000
2023-03-16T05:10:03.966Z,0.0000
2023-03-16T05:11:05.836Z,0.0000
2023-03-16T05:12:07.535Z,0.0000
2023-03-16T05:13:09.372Z,0.0000
2023-03-16T05:14:11.164Z,0.0000
2023-03-16T05:15:13.032Z,0.0000
2023-03-16T05:16:15.187Z,0.0000
2023-03-16T05:17:16.567Z,0.0000
2023-03-16T05:18:18.366Z,0.0000
2023-03-16T05:19:20.192Z,0.0000
2023-03-16T05:20:22.011Z,0.0000
2023-03-16T05:21:23.847Z,0.0000
2023-03-16T05:22:25.627Z,0.0000
2023-03-16T05:23:27.415Z,0.0000
2023-03-16T05:24:29.205Z,0.0000
2023-03-16T05:28:38.654Z,0.0000
2023-03-16T05:28:38.654Z,0.0000
2023-03-16T05:28:38.654Z,0.0000
2023-03-16T05:29:40.407Z,0.0000
2023-03-16T05:30:42.204Z,0.0000
2023-03-16T05:31:43.911Z,0.0000
2023-03-16T05:32:45.840Z,0.0000
2023-03-16T05:33:47.645Z,0.0000
2023-03-16T05:34:49.306Z,0.0000
2023-03-16T05:35:51.199Z,0.0000
2023-03-16T05:36:52.863Z,0.0000
2023-03-16T05:37:54.630Z,0.0000
2023-03-16T05:38:56.449Z,0.0000
2023-03-16T05:39:58.310Z,0.0000
2023-03-16T05:41:00.138Z,0.0000
2023-03-16T05:42:01.834Z,0.0000
2023-03-16T05:43:03.616Z,0.0000
2023-03-16T05:44:05.479Z,0.0000
2023-03-16T05:45:07.265Z,0.0000
2023-03-16T05:46:09.176Z,0.0000
2023-03-16T05:47:10.889Z,0.0000
2023-03-16T05:48:12.749Z,0.0000
2023-03-16T05:49:14.720Z,0.0000
2023-03-16T05:50:16.372Z,0.0000
2023-03-16T05:51:18.211Z,0.0000
2023-03-16T05:52:20.050Z,0.0000
2023-03-16T05:53:21.850Z,0.0000
2023-03-16T05:54:23.740Z,0.0000
2023-03-16T05:55:25.551Z,0.0000
2023-03-16T05:56:27.289Z,0.0000
2023-03-16T05:57:29.020Z,0.0000
2023-03-16T05:58:30.781Z,0.0000
2023-03-16T05:59:32.778Z,0.0000
2023-03-16T06:00:34.383Z,0.0000
2023-03-16T06:01:36.186Z,0.0000
2023-03-16T06:02:38.090Z,0.0000
2023-03-16T06:03:39.834Z,0.0000
2023-03-16T06:04:41.618Z,0.0000
2023-03-16T06:05:43.397Z,0.0000
2023-03-16T06:06:45.196Z,0.0000
2023-03-16T06:07:47.068Z,0.0000
2023-03-16T06:08:48.851Z,0.0000
2023-03-16T06:09:50.713Z,0.0000
2023-03-16T06:10:52.492Z,0.0000
2023-03-16T06:12:56.144Z,0.0000
2023-03-16T06:12:56.144Z,0.0000
2023-03-16T06:14:05.212Z,0.0000
2023-03-16T06:15:06.268Z,0.0000
2023-03-16T06:16:08.024Z,0.0000
2023-03-16T06:17:09.741Z,0.0000
2023-03-16T06:18:11.569Z,0.0000
2023-03-16T06:19:13.334Z,0.0000
2023-03-16T06:20:15.241Z,0.0000
2023-03-16T06:21:16.914Z,0.0000
2023-03-16T06:22:18.806Z,0.0000
2023-03-16T06:23:20.558Z,0.0000
2023-03-16T06:24:22.326Z,0.0000
2023-03-16T06:25:24.131Z,0.0000
2023-03-16T06:26:55.296Z,0.0000
2023-03-16T06:27:27.926Z,0.0000
2023-03-16T06:28:29.437Z,0.0000
2023-03-16T06:29:31.201Z,0.0000
2023-03-16T06:30:33.306Z,0.0000
2023-03-16T06:31:34.865Z,0.0000
2023-03-16T06:32:36.699Z,0.0000
2023-03-16T06:33:38.507Z,0.0000
2023-03-16T06:34:40.437Z,0.0000
2023-03-16T06:35:41.947Z,0.0000
2023-03-16T06:36:43.776Z,0.0000
2023-03-16T06:37:45.459Z,0.0000
2023-03-16T06:38:47.291Z,0.0000
2023-03-16T06:39:49.025Z,0.0000
2023-03-16T06:40:50.868Z,0.0000
2023-03-16T06:41:52.582Z,0.0000
2023-03-16T06:42:54.399Z,0.0000
2023-03-16T06:43:56.012Z,0.0000
2023-03-16T06:44:57.848Z,0.0000
2023-03-16T06:45:59.589Z,0.0000
2023-03-16T06:47:02.129Z,0.0000
2023-03-16T06:48:03.118Z,0.0000
2023-03-16T06:49:04.960Z,0.0000
2023-03-16T06:50:06.659Z,0.0000
2023-03-16T06:51:08.567Z,0.0000
2023-03-16T06:52:10.229Z,0.0000
2023-03-16T06:53:12.090Z,0.0000
2023-03-16T06:54:13.829Z,0.0000
2023-03-16T06:55:15.625Z,0.0000
2023-03-16T06:56:17.537Z,0.0000
2023-03-16T06:57:19.232Z,0.0000
2023-03-16T06:58:21.030Z,0.0000
2023-03-16T06:59:22.862Z,0.0000
2023-03-16T07:00:24.655Z,0.0000
2023-03-16T07:01:26.488Z,0.0000
2023-03-16T07:02:28.102Z,0.0000
2023-03-16T07:03:29.888Z,0.0000
2023-03-16T07:04:31.705Z,0.0000
2023-03-16T07:05:33.490Z,0.0000
2023-03-16T07:06:35.397Z,0.0000
2023-03-16T07:07:37.132Z,0.0000
2023-03-16T07:08:38.974Z,0.0000
2023-03-16T07:09:41.849Z,0.0000
2023-03-16T07:10:42.292Z,0.0000
2023-03-16T07:11:44.077Z,0.0000
2023-03-16T07:12:45.881Z,0.0000
2023-03-16T07:13:47.694Z,0.0000
2023-03-16T07:14:51.923Z,0.0000
2023-03-16T07:15:51.211Z,0.0000
2023-03-16T07:16:53.117Z,0.0000
2023-03-16T07:17:54.616Z,0.0000
2023-03-16T07:18:56.485Z,0.0000
2023-03-16T07:19:58.262Z,0.0000
2023-03-16T07:20:59.974Z,3.2069
2023-03-16T07:22:01.856Z,0.1379
2023-03-16T07:23:03.620Z,36.0345
2023-03-16T07:24:05.478Z,108.3793
2023-03-16T07:25:07.250Z,155.7931
2023-03-16T07:26:09.056Z,161.0000
2023-03-16T07:27:12.519Z,162.2069
2023-03-16T07:28:12.667Z,161.7931
2023-03-16T07:29:14.425Z,165.5172
2023-03-16T07:30:16.286Z,170.1379
2023-03-16T07:31:18.019Z,176.0690
2023-03-16T07:32:19.929Z,183.6897
2023-03-16T07:33:21.622Z,190.1035
2023-03-16T07:34:23.372Z,195.8965
2023-03-16T07:35:25.232Z,201.1724
2023-03-16T07:36:27.006Z,211.5517
2023-03-16T07:37:28.748Z,221.0000
2023-03-16T07:38:30.632Z,222.7931
2023-03-16T07:39:32.357Z,222.2069
2023-03-16T07:40:34.037Z,223.2069
2023-03-16T07:41:35.733Z,225.3448
2023-03-16T07:42:37.659Z,225.0345
2023-03-16T07:43:39.369Z,226.5172
2023-03-16T07:44:41.182Z,233.9310
2023-03-16T07:45:43.035Z,248.6897
2023-03-16T07:46:44.803Z,261.4138
2023-03-16T07:47:46.751Z,271.6207
2023-03-16T07:48:48.594Z,276.5517
2023-03-16T07:49:50.249Z,280.5862
2023-03-16T07:50:52.112Z,285.1724
2023-03-16T07:51:53.847Z,287.4828
2023-03-16T07:52:55.724Z,288.5517
2023-03-16T07:53:57.495Z,290.1724
2023-03-16T07:54:59.324Z,291.0000
2023-03-16T07:56:22.889Z,292.1379
2023-03-16T07:57:02.840Z,292.3500
2023-03-16T07:58:04.767Z,291.2758
2023-03-16T07:59:06.557Z,292.3793
2023-03-16T08:00:08.413Z,291.4828
2023-03-16T08:01:10.349Z,289.9655
2023-03-16T08:02:12.033Z,289.3793
2023-03-16T08:03:14.048Z,286.3793
2023-03-16T08:04:15.642Z,280.1724
2023-03-16T08:05:17.495Z,277.6552
2023-03-16T08:06:19.360Z,276.1724
2023-03-16T08:07:21.270Z,273.4483
2023-03-16T08:08:23.139Z,270.3103
2023-03-16T08:09:24.847Z,270.1379
2023-03-16T08:10:26.930Z,270.0000
2023-03-16T08:11:28.120Z,270.1724
2023-03-16T08:12:29.854Z,270.1379
2023-03-16T08:13:31.633Z,269.1724
2023-03-16T08:14:33.270Z,268.9310
2023-03-16T08:15:35.177Z,264.6552
2023-03-16T08:16:36.954Z,260.4828
2023-03-16T08:17:38.674Z,255.0345
2023-03-16T08:18:40.591Z,247.7586
